sensor_id;sensor_type;location;lat;lon;timestamp;P1;durP1;ratioP1;P2;durP2;ratioP2
31848;SDS011;18414;59.352;18.152;2023-03-12T00:00:59;2.07;;;1.63;;
31848;SDS011;18414;59.352;18.152;2023-03-12T00:03:25;2.77;;;1.50;;
31848;SDS011;18414;59.352;18.152;2023-03-12T00:05:50;2.10;;;1.67;;
31848;SDS011;18414;59.352;18.152;2023-03-12T00:08:16;3.33;;;1.40;;
31848;SDS011;18414;59.352;18.152;2023-03-12T00:10:41;3.17;;;1.50;;
31848;SDS011;18414;59.352;18.152;2023-03-12T00:13:07;1.63;;;1.20;;
31848;SDS011;18414;59.352;18.152;2023-03-12T00:15:36;2.30;;;1.40;;
31848;SDS011;18414;59.352;18.152;2023-03-12T00:18:02;1.67;;;1.50;;
31848;SDS011;18414;59.352;18.152;2023-03-12T00:20:28;1.97;;;1.37;;
31848;SDS011;18414;59.352;18.152;2023-03-12T00:22:54;2.07;;;1.50;;
31848;SDS011;18414;59.352;18.152;2023-03-12T00:25:19;4.37;;;1.50;;
31848;SDS011;18414;59.352;18.152;2023-03-12T00:27:45;4.30;;;1.60;;
31848;SDS011;18414;59.352;18.152;2023-03-12T00:30:10;2.17;;;1.50;;
31848;SDS011;18414;59.352;18.152;2023-03-12T00:32:37;2.60;;;1.57;;
31848;SDS011;18414;59.352;18.152;2023-03-12T00:35:03;4.83;;;1.60;;
31848;SDS011;18414;59.352;18.152;2023-03-12T00:37:29;3.30;;;1.40;;
31848;SDS011;18414;59.352;18.152;2023-03-12T00:39:56;1.40;;;1.30;;
31848;SDS011;18414;59.352;18.152;2023-03-12T00:42:22;6.23;;;1.67;;
31848;SDS011;18414;59.352;18.152;2023-03-12T00:44:47;2.77;;;1.60;;
31848;SDS011;18414;59.352;18.152;2023-03-12T00:47:13;1.87;;;1.33;;
31848;SDS011;18414;59.352;18.152;2023-03-12T00:49:39;2.20;;;1.43;;
31848;SDS011;18414;59.352;18.152;2023-03-12T00:52:04;2.30;;;1.33;;
31848;SDS011;18414;59.352;18.152;2023-03-12T00:54:30;1.93;;;1.20;;
31848;SDS011;18414;59.352;18.152;2023-03-12T00:56:55;2.30;;;1.30;;
31848;SDS011;18414;59.352;18.152;2023-03-12T00:59:21;1.77;;;1.40;;
31848;SDS011;18414;59.352;18.152;2023-03-12T01:01:46;3.57;;;1.77;;
31848;SDS011;18414;59.352;18.152;2023-03-12T01:04:12;2.37;;;1.67;;
31848;SDS011;18414;59.352;18.152;2023-03-12T01:06:38;1.47;;;1.30;;
31848;SDS011;18414;59.352;18.152;2023-03-12T01:09:04;1.60;;;1.40;;
31848;SDS011;18414;59.352;18.152;2023-03-12T01:11:30;2.60;;;1.50;;
31848;SDS011;18414;59.352;18.152;2023-03-12T01:13:57;3.57;;;1.40;;
31848;SDS011;18414;59.352;18.152;2023-03-12T01:16:24;2.20;;;1.30;;
31848;SDS011;18414;59.352;18.152;2023-03-12T01:18:52;3.17;;;1.70;;
31848;SDS011;18414;59.352;18.152;2023-03-12T01:21:18;3.33;;;1.47;;
31848;SDS011;18414;59.352;18.152;2023-03-12T01:23:43;2.97;;;1.77;;
31848;SDS011;18414;59.352;18.152;2023-03-12T01:26:09;2.20;;;1.60;;
31848;SDS011;18414;59.352;18.152;2023-03-12T01:28:35;1.80;;;1.20;;
31848;SDS011;18414;59.352;18.152;2023-03-12T01:31:05;5.00;;;1.73;;
31848;SDS011;18414;59.352;18.152;2023-03-12T01:33:31;3.17;;;1.60;;
31848;SDS011;18414;59.352;18.152;2023-03-12T01:35:57;2.13;;;1.50;;
31848;SDS011;18414;59.352;18.152;2023-03-12T01:38:22;1.70;;;1.40;;
31848;SDS011;18414;59.352;18.152;2023-03-12T01:40:48;2.37;;;1.60;;
31848;SDS011;18414;59.352;18.152;2023-03-12T01:43:24;1.63;;;1.47;;
31848;SDS011;18414;59.352;18.152;2023-03-12T01:48:55;2.17;;;1.60;;
31848;SDS011;18414;59.352;18.152;2023-03-12T01:51:24;4.30;;;1.50;;
31848;SDS011;18414;59.352;18.152;2023-03-12T01:53:52;2.00;;;1.27;;
31848;SDS011;18414;59.352;18.152;2023-03-12T01:56:18;2.03;;;1.50;;
31848;SDS011;18414;59.352;18.152;2023-03-12T01:58:46;3.87;;;1.70;;
31848;SDS011;18414;59.352;18.152;2023-03-12T02:01:15;2.97;;;1.77;;
31848;SDS011;18414;59.352;18.152;2023-03-12T02:03:42;2.53;;;1.70;;
31848;SDS011;18414;59.352;18.152;2023-03-12T02:06:10;2.70;;;1.60;;
31848;SDS011;18414;59.352;18.152;2023-03-12T02:08:39;1.80;;;1.30;;
31848;SDS011;18414;59.352;18.152;2023-03-12T02:11:08;3.03;;;1.60;;
31848;SDS011;18414;59.352;18.152;2023-03-12T02:13:33;2.63;;;1.57;;
31848;SDS011;18414;59.352;18.152;2023-03-12T02:15:59;2.67;;;1.53;;
31848;SDS011;18414;59.352;18.152;2023-03-12T02:18:25;4.07;;;1.53;;
31848;SDS011;18414;59.352;18.152;2023-03-12T02:21:13;2.37;;;1.70;;
31848;SDS011;18414;59.352;18.152;2023-03-12T02:23:51;1.50;;;1.40;;
31848;SDS011;18414;59.352;18.152;2023-03-12T02:26:21;2.30;;;1.53;;
31848;SDS011;18414;59.352;18.152;2023-03-12T02:28:49;3.93;;;1.50;;
31848;SDS011;18414;59.352;18.152;2023-03-12T02:31:16;2.47;;;1.60;;
31848;SDS011;18414;59.352;18.152;2023-03-12T02:33:44;2.50;;;1.60;;
31848;SDS011;18414;59.352;18.152;2023-03-12T02:36:10;2.77;;;1.63;;
31848;SDS011;18414;59.352;18.152;2023-03-12T02:43:48;1.97;;;1.40;;
31848;SDS011;18414;59.352;18.152;2023-03-12T02:46:20;3.17;;;1.60;;
31848;SDS011;18414;59.352;18.152;2023-03-12T02:48:45;2.20;;;1.60;;
31848;SDS011;18414;59.352;18.152;2023-03-12T02:51:11;2.13;;;1.43;;
31848;SDS011;18414;59.352;18.152;2023-03-12T02:53:36;2.43;;;1.50;;
31848;SDS011;18414;59.352;18.152;2023-03-12T02:56:02;3.13;;;1.60;;
31848;SDS011;18414;59.352;18.152;2023-03-12T02:58:28;2.43;;;1.70;;
31848;SDS011;18414;59.352;18.152;2023-03-12T03:00:53;2.23;;;1.60;;
31848;SDS011;18414;59.352;18.152;2023-03-12T03:03:19;1.97;;;1.50;;
31848;SDS011;18414;59.352;18.152;2023-03-12T03:05:44;2.77;;;1.60;;
31848;SDS011;18414;59.352;18.152;2023-03-12T03:08:09;3.70;;;1.37;;
31848;SDS011;18414;59.352;18.152;2023-03-12T03:10:35;1.77;;;1.40;;
31848;SDS011;18414;59.352;18.152;2023-03-12T03:13:00;1.80;;;1.50;;
31848;SDS011;18414;59.352;18.152;2023-03-12T03:15:26;2.57;;;1.70;;
31848;SDS011;18414;59.352;18.152;2023-03-12T03:17:51;2.37;;;1.70;;
31848;SDS011;18414;59.352;18.152;2023-03-12T03:20:18;2.10;;;1.40;;
31848;SDS011;18414;59.352;18.152;2023-03-12T03:22:43;1.77;;;1.47;;
31848;SDS011;18414;59.352;18.152;2023-03-12T03:25:09;2.67;;;1.53;;
31848;SDS011;18414;59.352;18.152;2023-03-12T03:27:34;2.73;;;1.57;;
31848;SDS011;18414;59.352;18.152;2023-03-12T03:30:00;3.03;;;1.60;;
31848;SDS011;18414;59.352;18.152;2023-03-12T03:32:25;3.13;;;1.47;;
31848;SDS011;18414;59.352;18.152;2023-03-12T03:34:51;3.40;;;1.23;;
31848;SDS011;18414;59.352;18.152;2023-03-12T03:37:16;1.63;;;1.20;;
31848;SDS011;18414;59.352;18.152;2023-03-12T03:39:42;2.10;;;1.43;;
31848;SDS011;18414;59.352;18.152;2023-03-12T03:42:07;2.67;;;1.50;;
31848;SDS011;18414;59.352;18.152;2023-03-12T03:44:33;1.80;;;1.50;;
31848;SDS011;18414;59.352;18.152;2023-03-12T03:46:58;2.43;;;1.70;;
31848;SDS011;18414;59.352;18.152;2023-03-12T03:49:24;2.17;;;1.47;;
31848;SDS011;18414;59.352;18.152;2023-03-12T03:51:49;1.93;;;1.30;;
31848;SDS011;18414;59.352;18.152;2023-03-12T03:54:18;2.20;;;1.67;;
31848;SDS011;18414;59.352;18.152;2023-03-12T03:56:43;3.60;;;1.73;;
31848;SDS011;18414;59.352;18.152;2023-03-12T03:59:09;1.43;;;1.33;;
31848;SDS011;18414;59.352;18.152;2023-03-12T04:01:34;1.97;;;1.50;;
31848;SDS011;18414;59.352;18.152;2023-03-12T04:04:00;1.47;;;1.33;;
31848;SDS011;18414;59.352;18.152;2023-03-12T04:06:26;1.40;;;1.30;;
31848;SDS011;18414;59.352;18.152;2023-03-12T04:08:53;2.77;;;1.27;;
31848;SDS011;18414;59.352;18.152;2023-03-12T04:11:19;3.33;;;1.23;;
31848;SDS011;18414;59.352;18.152;2023-03-12T04:13:46;3.57;;;1.50;;
31848;SDS011;18414;59.352;18.152;2023-03-12T04:16:12;2.53;;;1.80;;
31848;SDS011;18414;59.352;18.152;2023-03-12T04:18:38;2.13;;;1.20;;
31848;SDS011;18414;59.352;18.152;2023-03-12T04:21:04;3.40;;;1.53;;
31848;SDS011;18414;59.352;18.152;2023-03-12T04:23:31;2.17;;;1.07;;
31848;SDS011;18414;59.352;18.152;2023-03-12T04:25:56;2.30;;;1.60;;
31848;SDS011;18414;59.352;18.152;2023-03-12T04:28:23;3.23;;;1.50;;
31848;SDS011;18414;59.352;18.152;2023-03-12T04:30:55;2.33;;;1.33;;
31848;SDS011;18414;59.352;18.152;2023-03-12T04:33:25;1.40;;;1.13;;
31848;SDS011;18414;59.352;18.152;2023-03-12T04:35:54;3.17;;;1.70;;
31848;SDS011;18414;59.352;18.152;2023-03-12T04:38:20;2.50;;;1.83;;
31848;SDS011;18414;59.352;18.152;2023-03-12T04:40:56;3.73;;;1.63;;
31848;SDS011;18414;59.352;18.152;2023-03-12T04:43:22;2.10;;;1.20;;
31848;SDS011;18414;59.352;18.152;2023-03-12T04:45:48;2.37;;;1.50;;
31848;SDS011;18414;59.352;18.152;2023-03-12T04:48:14;1.97;;;1.40;;
31848;SDS011;18414;59.352;18.152;2023-03-12T04:50:39;2.20;;;1.27;;
31848;SDS011;18414;59.352;18.152;2023-03-12T04:53:04;2.23;;;1.40;;
31848;SDS011;18414;59.352;18.152;2023-03-12T04:55:30;2.20;;;1.23;;
31848;SDS011;18414;59.352;18.152;2023-03-12T04:57:55;2.27;;;1.43;;
31848;SDS011;18414;59.352;18.152;2023-03-12T05:00:21;3.70;;;1.67;;
31848;SDS011;18414;59.352;18.152;2023-03-12T05:02:46;2.17;;;1.33;;
31848;SDS011;18414;59.352;18.152;2023-03-12T05:05:12;2.43;;;1.50;;
31848;SDS011;18414;59.352;18.152;2023-03-12T05:07:37;2.23;;;1.63;;
31848;SDS011;18414;59.352;18.152;2023-03-12T05:10:02;2.47;;;1.70;;
31848;SDS011;18414;59.352;18.152;2023-03-12T05:12:28;1.50;;;1.20;;
31848;SDS011;18414;59.352;18.152;2023-03-12T05:14:54;4.13;;;1.63;;
31848;SDS011;18414;59.352;18.152;2023-03-12T05:17:20;2.17;;;1.60;;
31848;SDS011;18414;59.352;18.152;2023-03-12T05:19:45;2.73;;;1.70;;
31848;SDS011;18414;59.352;18.152;2023-03-12T05:22:10;2.53;;;1.73;;
31848;SDS011;18414;59.352;18.152;2023-03-12T05:24:36;2.17;;;1.60;;
31848;SDS011;18414;59.352;18.152;2023-03-12T05:27:01;2.57;;;1.70;;
31848;SDS011;18414;59.352;18.152;2023-03-12T05:29:27;4.00;;;1.70;;
31848;SDS011;18414;59.352;18.152;2023-03-12T05:31:53;3.07;;;1.73;;
31848;SDS011;18414;59.352;18.152;2023-03-12T05:34:18;2.53;;;1.50;;
31848;SDS011;18414;59.352;18.152;2023-03-12T05:36:44;2.37;;;1.50;;
31848;SDS011;18414;59.352;18.152;2023-03-12T05:39:09;3.37;;;1.60;;
31848;SDS011;18414;59.352;18.152;2023-03-12T05:41:34;2.47;;;1.60;;
31848;SDS011;18414;59.352;18.152;2023-03-12T05:44:00;3.73;;;1.60;;
31848;SDS011;18414;59.352;18.152;2023-03-12T05:46:26;1.87;;;1.43;;
31848;SDS011;18414;59.352;18.152;2023-03-12T05:48:52;3.40;;;1.67;;
31848;SDS011;18414;59.352;18.152;2023-03-12T05:51:17;2.17;;;1.40;;
31848;SDS011;18414;59.352;18.152;2023-03-12T05:53:43;2.10;;;1.30;;
31848;SDS011;18414;59.352;18.152;2023-03-12T05:56:10;2.20;;;1.43;;
31848;SDS011;18414;59.352;18.152;2023-03-12T05:58:36;2.50;;;1.50;;
31848;SDS011;18414;59.352;18.152;2023-03-12T06:01:02;3.73;;;1.67;;
31848;SDS011;18414;59.352;18.152;2023-03-12T06:03:28;4.03;;;1.53;;
31848;SDS011;18414;59.352;18.152;2023-03-12T06:05:54;2.63;;;1.47;;
31848;SDS011;18414;59.352;18.152;2023-03-12T06:08:21;1.47;;;1.20;;
31848;SDS011;18414;59.352;18.152;2023-03-12T06:10:49;1.50;;;1.30;;
31848;SDS011;18414;59.352;18.152;2023-03-12T06:13:15;2.07;;;1.43;;
31848;SDS011;18414;59.352;18.152;2023-03-12T06:15:40;3.27;;;1.53;;
31848;SDS011;18414;59.352;18.152;2023-03-12T06:18:05;1.30;;;1.20;;
31848;SDS011;18414;59.352;18.152;2023-03-12T06:20:31;2.13;;;1.37;;
31848;SDS011;18414;59.352;18.152;2023-03-12T06:22:56;2.30;;;1.30;;
31848;SDS011;18414;59.352;18.152;2023-03-12T06:25:21;1.30;;;1.13;;
31848;SDS011;18414;59.352;18.152;2023-03-12T06:27:47;1.93;;;1.30;;
31848;SDS011;18414;59.352;18.152;2023-03-12T06:30:13;2.13;;;1.10;;
31848;SDS011;18414;59.352;18.152;2023-03-12T06:32:38;1.90;;;1.40;;
31848;SDS011;18414;59.352;18.152;2023-03-12T06:35:04;2.17;;;1.37;;
31848;SDS011;18414;59.352;18.152;2023-03-12T06:37:30;1.73;;;1.30;;
31848;SDS011;18414;59.352;18.152;2023-03-12T06:39:55;1.73;;;1.20;;
31848;SDS011;18414;59.352;18.152;2023-03-12T06:42:20;1.87;;;1.20;;
31848;SDS011;18414;59.352;18.152;2023-03-12T06:44:46;1.43;;;1.07;;
31848;SDS011;18414;59.352;18.152;2023-03-12T06:47:12;1.43;;;1.00;;
31848;SDS011;18414;59.352;18.152;2023-03-12T06:49:37;1.53;;;1.30;;
31848;SDS011;18414;59.352;18.152;2023-03-12T06:52:03;1.20;;;1.10;;
31848;SDS011;18414;59.352;18.152;2023-03-12T06:54:28;2.70;;;1.20;;
31848;SDS011;18414;59.352;18.152;2023-03-12T06:56:54;1.27;;;1.00;;
31848;SDS011;18414;59.352;18.152;2023-03-12T06:59:19;1.53;;;1.10;;
31848;SDS011;18414;59.352;18.152;2023-03-12T07:01:46;2.70;;;1.20;;
31848;SDS011;18414;59.352;18.152;2023-03-12T07:04:12;2.23;;;1.17;;
31848;SDS011;18414;59.352;18.152;2023-03-12T07:06:38;1.27;;;1.17;;
31848;SDS011;18414;59.352;18.152;2023-03-12T07:09:03;4.07;;;1.33;;
31848;SDS011;18414;59.352;18.152;2023-03-12T07:11:29;4.67;;;1.27;;
31848;SDS011;18414;59.352;18.152;2023-03-12T07:13:54;1.97;;;1.20;;
31848;SDS011;18414;59.352;18.152;2023-03-12T07:16:19;1.73;;;1.10;;
31848;SDS011;18414;59.352;18.152;2023-03-12T07:18:45;1.37;;;1.10;;
31848;SDS011;18414;59.352;18.152;2023-03-12T07:21:11;1.50;;;1.13;;
31848;SDS011;18414;59.352;18.152;2023-03-12T07:23:36;1.87;;;1.13;;
31848;SDS011;18414;59.352;18.152;2023-03-12T07:26:02;1.40;;;1.00;;
31848;SDS011;18414;59.352;18.152;2023-03-12T07:28:29;1.83;;;1.20;;
31848;SDS011;18414;59.352;18.152;2023-03-12T07:30:58;2.80;;;1.23;;
31848;SDS011;18414;59.352;18.152;2023-03-12T07:33:24;1.70;;;1.20;;
31848;SDS011;18414;59.352;18.152;2023-03-12T07:35:50;2.30;;;1.20;;
31848;SDS011;18414;59.352;18.152;2023-03-12T07:38:15;1.43;;;1.20;;
31848;SDS011;18414;59.352;18.152;2023-03-12T07:40:40;1.60;;;1.07;;
31848;SDS011;18414;59.352;18.152;2023-03-12T07:43:06;1.20;;;1.10;;
31848;SDS011;18414;59.352;18.152;2023-03-12T07:45:35;1.30;;;0.90;;
31848;SDS011;18414;59.352;18.152;2023-03-12T07:48:02;1.40;;;1.00;;
31848;SDS011;18414;59.352;18.152;2023-03-12T07:50:27;2.33;;;1.10;;
31848;SDS011;18414;59.352;18.152;2023-03-12T07:52:53;1.90;;;1.23;;
31848;SDS011;18414;59.352;18.152;2023-03-12T07:55:18;0.93;;;0.90;;
31848;SDS011;18414;59.352;18.152;2023-03-12T07:57:44;1.93;;;1.00;;
31848;SDS011;18414;59.352;18.152;2023-03-12T08:00:10;1.17;;;1.00;;
31848;SDS011;18414;59.352;18.152;2023-03-12T08:02:36;1.73;;;1.10;;
31848;SDS011;18414;59.352;18.152;2023-03-12T08:05:02;0.83;;;0.80;;
31848;SDS011;18414;59.352;18.152;2023-03-12T08:07:27;1.93;;;1.10;;
31848;SDS011;18414;59.352;18.152;2023-03-12T08:09:57;2.10;;;1.30;;
31848;SDS011;18414;59.352;18.152;2023-03-12T08:12:22;0.80;;;0.80;;
31848;SDS011;18414;59.352;18.152;2023-03-12T08:14:48;3.13;;;0.90;;
31848;SDS011;18414;59.352;18.152;2023-03-12T08:17:13;1.57;;;0.80;;
31848;SDS011;18414;59.352;18.152;2023-03-12T08:19:38;0.97;;;0.77;;
31848;SDS011;18414;59.352;18.152;2023-03-12T08:22:04;1.80;;;0.90;;
31848;SDS011;18414;59.352;18.152;2023-03-12T08:24:30;1.50;;;0.90;;
31848;SDS011;18414;59.352;18.152;2023-03-12T08:26:56;2.80;;;0.80;;
31848;SDS011;18414;59.352;18.152;2023-03-12T08:29:21;1.70;;;1.00;;
31848;SDS011;18414;59.352;18.152;2023-03-12T08:31:46;2.07;;;1.00;;
31848;SDS011;18414;59.352;18.152;2023-03-12T08:34:12;1.07;;;0.90;;
31848;SDS011;18414;59.352;18.152;2023-03-12T08:36:37;2.27;;;0.80;;
31848;SDS011;18414;59.352;18.152;2023-03-12T08:39:02;2.03;;;1.00;;
31848;SDS011;18414;59.352;18.152;2023-03-12T08:41:28;1.17;;;0.80;;
31848;SDS011;18414;59.352;18.152;2023-03-12T08:43:54;2.33;;;0.80;;
31848;SDS011;18414;59.352;18.152;2023-03-12T08:46:19;2.03;;;0.87;;
31848;SDS011;18414;59.352;18.152;2023-03-12T08:48:45;1.57;;;0.90;;
31848;SDS011;18414;59.352;18.152;2023-03-12T08:51:10;1.10;;;0.90;;
31848;SDS011;18414;59.352;18.152;2023-03-12T08:53:36;1.00;;;0.87;;
31848;SDS011;18414;59.352;18.152;2023-03-12T08:56:01;1.40;;;0.90;;
31848;SDS011;18414;59.352;18.152;2023-03-12T08:58:27;1.63;;;0.90;;
31848;SDS011;18414;59.352;18.152;2023-03-12T09:00:53;0.93;;;0.90;;
31848;SDS011;18414;59.352;18.152;2023-03-12T09:03:19;0.90;;;0.70;;
31848;SDS011;18414;59.352;18.152;2023-03-12T09:05:45;0.80;;;0.80;;
31848;SDS011;18414;59.352;18.152;2023-03-12T09:08:11;1.20;;;0.90;;
31848;SDS011;18414;59.352;18.152;2023-03-12T09:10:37;2.40;;;0.90;;
31848;SDS011;18414;59.352;18.152;2023-03-12T09:13:03;1.27;;;0.80;;
31848;SDS011;18414;59.352;18.152;2023-03-12T09:15:30;1.33;;;0.80;;
31848;SDS011;18414;59.352;18.152;2023-03-12T09:17:55;1.13;;;0.87;;
31848;SDS011;18414;59.352;18.152;2023-03-12T09:20:21;3.13;;;1.00;;
31848;SDS011;18414;59.352;18.152;2023-03-12T09:22:47;2.13;;;0.90;;
31848;SDS011;18414;59.352;18.152;2023-03-12T09:25:12;2.17;;;0.90;;
31848;SDS011;18414;59.352;18.152;2023-03-12T09:27:42;2.10;;;1.30;;
31848;SDS011;18414;59.352;18.152;2023-03-12T09:30:10;2.27;;;1.00;;
31848;SDS011;18414;59.352;18.152;2023-03-12T09:32:40;0.60;;;0.60;;
31848;SDS011;18414;59.352;18.152;2023-03-12T09:35:05;2.57;;;1.00;;
31848;SDS011;18414;59.352;18.152;2023-03-12T09:37:32;0.97;;;0.83;;
31848;SDS011;18414;59.352;18.152;2023-03-12T09:39:57;1.23;;;0.80;;
31848;SDS011;18414;59.352;18.152;2023-03-12T09:42:30;2.43;;;0.93;;
31848;SDS011;18414;59.352;18.152;2023-03-12T09:45:10;4.57;;;1.10;;
31848;SDS011;18414;59.352;18.152;2023-03-12T09:47:42;2.43;;;1.20;;
31848;SDS011;18414;59.352;18.152;2023-03-12T09:50:16;1.90;;;0.83;;
31848;SDS011;18414;59.352;18.152;2023-03-12T09:53:02;4.80;;;1.27;;
31848;SDS011;18414;59.352;18.152;2023-03-12T09:55:40;0.90;;;0.90;;
31848;SDS011;18414;59.352;18.152;2023-03-12T09:58:13;1.13;;;0.90;;
31848;SDS011;18414;59.352;18.152;2023-03-12T10:00:49;1.17;;;0.80;;
31848;SDS011;18414;59.352;18.152;2023-03-12T10:03:32;1.20;;;0.90;;
31848;SDS011;18414;59.352;18.152;2023-03-12T10:06:10;1.50;;;0.93;;
31848;SDS011;18414;59.352;18.152;2023-03-12T10:18:53;1.70;;;0.90;;
31848;SDS011;18414;59.352;18.152;2023-03-12T10:24:24;0.60;;;0.60;;
31848;SDS011;18414;59.352;18.152;2023-03-12T10:26:57;1.20;;;0.90;;
31848;SDS011;18414;59.352;18.152;2023-03-12T10:29:27;1.00;;;0.90;;
31848;SDS011;18414;59.352;18.152;2023-03-12T10:32:36;1.90;;;1.00;;
31848;SDS011;18414;59.352;18.152;2023-03-12T10:34:53;1.17;;;0.70;;
31848;SDS011;18414;59.352;18.152;2023-03-12T10:37:25;3.53;;;0.83;;
31848;SDS011;18414;59.352;18.152;2023-03-12T10:39:53;1.13;;;0.80;;
31848;SDS011;18414;59.352;18.152;2023-03-12T10:42:21;1.40;;;0.70;;
31848;SDS011;18414;59.352;18.152;2023-03-12T10:44:50;0.90;;;0.70;;
31848;SDS011;18414;59.352;18.152;2023-03-12T10:52:46;1.13;;;0.70;;
31848;SDS011;18414;59.352;18.152;2023-03-12T10:55:23;0.70;;;0.63;;
31848;SDS011;18414;59.352;18.152;2023-03-12T10:57:51;0.60;;;0.60;;
31848;SDS011;18414;59.352;18.152;2023-03-12T11:00:27;0.93;;;0.70;;
31848;SDS011;18414;59.352;18.152;2023-03-12T11:02:57;1.07;;;0.70;;
31848;SDS011;18414;59.352;18.152;2023-03-12T11:08:27;2.93;;;0.70;;
31848;SDS011;18414;59.352;18.152;2023-03-12T11:10:58;1.37;;;0.67;;
31848;SDS011;18414;59.352;18.152;2023-03-12T11:13:28;2.63;;;0.70;;
31848;SDS011;18414;59.352;18.152;2023-03-12T11:15:56;0.80;;;0.50;;
31848;SDS011;18414;59.352;18.152;2023-03-12T11:19:00;0.83;;;0.70;;
31848;SDS011;18414;59.352;18.152;2023-03-12T11:21:28;0.70;;;0.60;;
31848;SDS011;18414;59.352;18.152;2023-03-12T11:26:21;1.93;;;0.90;;
31848;SDS011;18414;59.352;18.152;2023-03-12T11:31:44;1.03;;;0.70;;
31848;SDS011;18414;59.352;18.152;2023-03-12T11:34:23;0.90;;;0.60;;
31848;SDS011;18414;59.352;18.152;2023-03-12T11:36:57;1.57;;;0.73;;
31848;SDS011;18414;59.352;18.152;2023-03-12T11:39:36;1.33;;;0.67;;
31848;SDS011;18414;59.352;18.152;2023-03-12T11:44:49;0.90;;;0.70;;
31848;SDS011;18414;59.352;18.152;2023-03-12T11:50:25;1.10;;;0.70;;
31848;SDS011;18414;59.352;18.152;2023-03-12T11:53:10;0.60;;;0.60;;
31848;SDS011;18414;59.352;18.152;2023-03-12T11:56:16;2.00;;;0.70;;
31848;SDS011;18414;59.352;18.152;2023-03-12T11:59:05;1.53;;;0.77;;
31848;SDS011;18414;59.352;18.152;2023-03-12T12:24:12;0.90;;;0.70;;
31848;SDS011;18414;59.352;18.152;2023-03-12T12:26:48;0.70;;;0.70;;
31848;SDS011;18414;59.352;18.152;2023-03-12T12:29:56;0.80;;;0.67;;
31848;SDS011;18414;59.352;18.152;2023-03-12T12:32:55;0.70;;;0.60;;
31848;SDS011;18414;59.352;18.152;2023-03-12T12:35:40;1.93;;;0.80;;
31848;SDS011;18414;59.352;18.152;2023-03-12T12:38:19;1.17;;;0.70;;
31848;SDS011;18414;59.352;18.152;2023-03-12T12:41:08;0.60;;;0.60;;
31848;SDS011;18414;59.352;18.152;2023-03-12T12:43:36;0.60;;;0.60;;
31848;SDS011;18414;59.352;18.152;2023-03-12T12:46:03;0.60;;;0.50;;
31848;SDS011;18414;59.352;18.152;2023-03-12T12:48:34;2.10;;;0.53;;
31848;SDS011;18414;59.352;18.152;2023-03-12T12:51:03;1.93;;;0.67;;
31848;SDS011;18414;59.352;18.152;2023-03-12T12:53:32;0.77;;;0.60;;
31848;SDS011;18414;59.352;18.152;2023-03-12T12:56:17;0.67;;;0.67;;
31848;SDS011;18414;59.352;18.152;2023-03-12T12:59:24;1.30;;;0.90;;
31848;SDS011;18414;59.352;18.152;2023-03-12T13:02:21;1.80;;;0.60;;
31848;SDS011;18414;59.352;18.152;2023-03-12T13:04:50;0.73;;;0.60;;
31848;SDS011;18414;59.352;18.152;2023-03-12T13:09:48;1.07;;;0.70;;
31848;SDS011;18414;59.352;18.152;2023-03-12T13:20:31;0.97;;;0.50;;
31848;SDS011;18414;59.352;18.152;2023-03-12T13:25:40;0.50;;;0.50;;
31848;SDS011;18414;59.352;18.152;2023-03-12T13:28:31;0.60;;;0.50;;
31848;SDS011;18414;59.352;18.152;2023-03-12T13:31:45;3.20;;;0.70;;
31848;SDS011;18414;59.352;18.152;2023-03-12T13:33:52;0.60;;;0.60;;
31848;SDS011;18414;59.352;18.152;2023-03-12T13:41:32;4.50;;;0.80;;
31848;SDS011;18414;59.352;18.152;2023-03-12T13:44:01;0.97;;;0.50;;
31848;SDS011;18414;59.352;18.152;2023-03-12T13:52:27;2.17;;;0.80;;
31848;SDS011;18414;59.352;18.152;2023-03-12T13:55:04;1.23;;;0.63;;
31848;SDS011;18414;59.352;18.152;2023-03-12T13:57:43;3.53;;;0.70;;
31848;SDS011;18414;59.352;18.152;2023-03-12T14:00:19;0.93;;;0.50;;
31848;SDS011;18414;59.352;18.152;2023-03-12T14:02:48;0.50;;;0.50;;
31848;SDS011;18414;59.352;18.152;2023-03-12T14:05:17;0.50;;;0.50;;
31848;SDS011;18414;59.352;18.152;2023-03-12T14:07:58;2.10;;;0.70;;
31848;SDS011;18414;59.352;18.152;2023-03-12T14:13:28;1.53;;;0.60;;
31848;SDS011;18414;59.352;18.152;2023-03-12T14:18:40;1.77;;;0.80;;
31848;SDS011;18414;59.352;18.152;2023-03-12T14:21:08;1.10;;;0.60;;
31848;SDS011;18414;59.352;18.152;2023-03-12T14:23:43;0.50;;;0.50;;
31848;SDS011;18414;59.352;18.152;2023-03-12T14:26:15;4.23;;;0.80;;
31848;SDS011;18414;59.352;18.152;2023-03-12T14:28:44;0.80;;;0.53;;
31848;SDS011;18414;59.352;18.152;2023-03-12T14:31:15;1.47;;;0.60;;
31848;SDS011;18414;59.352;18.152;2023-03-12T14:33:57;1.33;;;0.60;;
31848;SDS011;18414;59.352;18.152;2023-03-12T14:36:26;2.03;;;0.73;;
31848;SDS011;18414;59.352;18.152;2023-03-12T14:38:59;1.20;;;0.83;;
31848;SDS011;18414;59.352;18.152;2023-03-12T14:41:34;0.50;;;0.50;;
31848;SDS011;18414;59.352;18.152;2023-03-12T14:44:11;0.50;;;0.50;;
31848;SDS011;18414;59.352;18.152;2023-03-12T14:46:45;0.53;;;0.53;;
31848;SDS011;18414;59.352;18.152;2023-03-12T14:49:18;2.30;;;0.60;;
31848;SDS011;18414;59.352;18.152;2023-03-12T14:51:45;2.00;;;0.57;;
31848;SDS011;18414;59.352;18.152;2023-03-12T14:54:15;3.03;;;0.70;;
31848;SDS011;18414;59.352;18.152;2023-03-12T14:56:43;1.13;;;0.67;;
31848;SDS011;18414;59.352;18.152;2023-03-12T14:59:26;1.27;;;0.70;;
31848;SDS011;18414;59.352;18.152;2023-03-12T15:02:00;2.90;;;0.60;;
31848;SDS011;18414;59.352;18.152;2023-03-12T15:04:30;1.57;;;0.80;;
31848;SDS011;18414;59.352;18.152;2023-03-12T15:06:58;3.13;;;0.80;;
31848;SDS011;18414;59.352;18.152;2023-03-12T15:09:28;1.87;;;0.60;;
31848;SDS011;18414;59.352;18.152;2023-03-12T15:12:02;6.10;;;0.70;;
31848;SDS011;18414;59.352;18.152;2023-03-12T15:14:31;0.50;;;0.50;;
31848;SDS011;18414;59.352;18.152;2023-03-12T15:17:00;0.70;;;0.60;;
31848;SDS011;18414;59.352;18.152;2023-03-12T15:19:34;1.27;;;0.50;;
31848;SDS011;18414;59.352;18.152;2023-03-12T15:22:00;3.27;;;0.80;;
31848;SDS011;18414;59.352;18.152;2023-03-12T15:24:27;1.47;;;0.70;;
31848;SDS011;18414;59.352;18.152;2023-03-12T15:26:54;1.00;;;0.70;;
31848;SDS011;18414;59.352;18.152;2023-03-12T15:29:21;1.70;;;0.63;;
31848;SDS011;18414;59.352;18.152;2023-03-12T15:31:55;1.23;;;0.60;;
31848;SDS011;18414;59.352;18.152;2023-03-12T15:34:28;0.87;;;0.70;;
31848;SDS011;18414;59.352;18.152;2023-03-12T15:36:56;1.90;;;0.63;;
31848;SDS011;18414;59.352;18.152;2023-03-12T15:39:32;2.10;;;0.70;;
31848;SDS011;18414;59.352;18.152;2023-03-12T15:42:00;1.23;;;0.90;;
31848;SDS011;18414;59.352;18.152;2023-03-12T15:44:34;2.43;;;0.80;;
31848;SDS011;18414;59.352;18.152;2023-03-12T15:47:15;2.40;;;0.90;;
31848;SDS011;18414;59.352;18.152;2023-03-12T15:49:42;1.53;;;1.10;;
31848;SDS011;18414;59.352;18.152;2023-03-12T15:54:57;1.03;;;0.80;;
31848;SDS011;18414;59.352;18.152;2023-03-12T15:57:24;1.60;;;1.00;;
31848;SDS011;18414;59.352;18.152;2023-03-12T16:02:49;1.63;;;0.80;;
31848;SDS011;18414;59.352;18.152;2023-03-12T16:05:17;0.97;;;0.80;;
31848;SDS011;18414;59.352;18.152;2023-03-12T16:07:47;1.03;;;0.70;;
31848;SDS011;18414;59.352;18.152;2023-03-12T16:10:13;1.20;;;0.77;;
31848;SDS011;18414;59.352;18.152;2023-03-12T16:12:40;0.93;;;0.70;;
31848;SDS011;18414;59.352;18.152;2023-03-12T16:15:13;1.33;;;0.77;;
31848;SDS011;18414;59.352;18.152;2023-03-12T16:17:41;0.67;;;0.67;;
31848;SDS011;18414;59.352;18.152;2023-03-12T16:20:10;2.73;;;0.70;;
31848;SDS011;18414;59.352;18.152;2023-03-12T16:22:37;2.70;;;0.80;;